« Back
NWS Peachtree City, Ga » Text Product » ATL Terminal Aerodrome Forecast


Printer-friendly Version
Current Version              Previous Versions:   1  2  3  4  5  6  7  8  9  

Terminal Aerodrome Forecast

257
FTUS42 KFFC 020700 AAA
TAFATL
TAF AMD
KATL 020748Z 0208/0312 VRB03KT P6SM FEW150 SCT250
     FM021400 24004KT P6SM SCT035 SCT150
     FM021800 27006KT P6SM SCT050 SCT150 PROB30 0219/0223 VRB15G30KT
      5SM TSRA BKN045CB
     FM030100 VRB03KT P6SM FEW050 BKN120=



USA.gov is the U.S. government's official web portal to all federal, state and local government web resources and services.